createdAt,value
2019-01-30T00:01:19.517Z,77.78
2019-01-30T00:03:50.086Z,77.40
2019-01-30T00:06:21.096Z,76.97
2019-01-30T00:08:52.676Z,76.96
2019-01-30T00:11:23.764Z,76.95
2019-01-30T00:13:54.482Z,77.69
2019-01-30T00:16:25.233Z,77.44
2019-01-30T00:18:56.119Z,77.04
2019-01-30T00:21:26.895Z,77.26
2019-01-30T00:23:57.518Z,78.20
2019-01-30T00:26:28.391Z,77.47
2019-01-30T00:28:59.318Z,76.92
2019-01-30T00:31:30.241Z,76.60
2019-01-30T00:34:01.203Z,78.78
2019-01-30T00:36:32.094Z,77.82
2019-01-30T00:39:02.220Z,77.84
2019-01-30T00:41:32.976Z,78.61
2019-01-30T00:44:03.681Z,77.89
2019-01-30T00:46:34.554Z,77.05
2019-01-30T00:49:05.421Z,77.65
2019-01-30T00:51:36.414Z,77.35
2019-01-30T00:54:07.662Z,76.79
2019-01-30T00:56:38.312Z,76.76
2019-01-30T00:59:08.940Z,77.90
2019-01-30T01:01:39.916Z,77.35
2019-01-30T01:04:11.103Z,77.17
2019-01-30T01:06:41.441Z,76.85
2019-01-30T01:09:11.865Z,76.33
2019-01-30T01:12:06.021Z,75.84
2019-01-30T01:14:36.573Z,75.94
2019-01-30T01:17:07.328Z,77.70
2019-01-30T01:19:38.247Z,76.42
2019-01-30T01:22:08.994Z,75.92
2019-01-30T01:24:39.695Z,76.14
2019-01-30T01:27:10.339Z,75.50
2019-01-30T01:32:53.208Z,75.92
2019-01-30T01:35:23.811Z,76.45
2019-01-30T01:37:54.563Z,75.67
2019-01-30T01:40:25.585Z,75.76
2019-01-30T01:42:56.255Z,75.96
2019-01-30T01:45:46.854Z,76.91
2019-01-30T01:48:17.446Z,78.28
2019-01-30T01:50:48.912Z,79.15
2019-01-30T01:53:19.829Z,78.83
2019-01-30T01:55:50.348Z,78.55
2019-01-30T01:58:21.080Z,78.14
2019-01-30T02:00:52.047Z,78.66
2019-01-30T02:03:23.106Z,79.47
2019-01-30T02:05:53.886Z,79.60
2019-01-30T02:08:24.522Z,79.40
2019-01-30T02:10:55.338Z,77.61
2019-01-30T02:13:25.978Z,77.29
2019-01-30T02:15:56.551Z,76.94
2019-01-30T02:18:27.252Z,77.83
2019-01-30T02:20:58.124Z,76.37
2019-01-30T02:23:29.575Z,77.35
2019-01-30T02:26:00.166Z,77.19
2019-01-30T02:28:30.587Z,76.34
2019-01-30T02:31:21.455Z,77.14
2019-01-30T02:33:52.131Z,77.91
2019-01-30T02:36:22.974Z,75.66
2019-01-30T02:39:13.917Z,77.02
2019-01-30T02:41:44.801Z,76.45
2019-01-30T02:44:15.344Z,78.64
2019-01-30T02:46:46.208Z,80.52
2019-01-30T02:49:17.237Z,79.19
2019-01-30T02:51:48.135Z,79.39
2019-01-30T02:54:18.772Z,78.12
2019-01-30T02:56:49.641Z,76.66
2019-01-30T03:02:22.500Z,78.66
2019-01-30T03:04:53.241Z,77.78
2019-01-30T03:07:24.093Z,78.65
2019-01-30T03:09:55.044Z,78.02
2019-01-30T03:12:26.067Z,76.94
2019-01-30T03:14:56.920Z,77.48
2019-01-30T03:17:27.559Z,77.10
2019-01-30T03:19:58.235Z,78.08
2019-01-30T03:22:29.133Z,79.10
2019-01-30T03:28:31.126Z,79.51
2019-01-30T03:31:17.319Z,78.35
2019-01-30T03:33:33.811Z,77.83
2019-01-30T03:36:04.710Z,78.15
2019-01-30T03:38:35.892Z,77.36
2019-01-30T03:44:01.496Z,77.51
2019-01-30T03:46:32.685Z,78.03
2019-01-30T03:51:58.813Z,77.04
2019-01-30T03:54:29.507Z,76.48
2019-01-30T03:57:00.251Z,76.73
2019-01-30T03:59:31.183Z,78.86
2019-01-30T04:02:01.923Z,77.15
2019-01-30T04:04:33.085Z,79.69
2019-01-30T04:07:28.778Z,81.24
2019-01-30T04:09:59.968Z,82.32
2019-01-30T04:12:30.566Z,83.23
2019-01-30T04:15:01.326Z,84.97
2019-01-30T04:17:32.489Z,85.07
2019-01-30T04:20:03.173Z,85.83
2019-01-30T04:22:33.734Z,86.18
2019-01-30T04:25:05.216Z,86.52
2019-01-30T04:27:36.411Z,87.11
2019-01-30T04:30:33.337Z,85.66
2019-01-30T04:33:04.067Z,84.98
2019-01-30T04:35:35.052Z,83.75
2019-01-30T04:38:05.680Z,82.34
2019-01-30T04:40:35.914Z,82.03
2019-01-30T04:43:06.699Z,81.94
2019-01-30T04:45:37.618Z,80.68
2019-01-30T04:48:08.690Z,78.54
2019-01-30T04:50:39.203Z,79.04
2019-01-30T04:53:09.742Z,76.89
2019-01-30T04:55:40.496Z,77.67
2019-01-30T04:58:11.442Z,75.99
2019-01-30T05:01:02.279Z,75.13
2019-01-30T05:03:32.770Z,73.11
2019-01-30T05:06:03.916Z,73.45
2019-01-30T05:08:35.088Z,73.52
2019-01-30T05:11:05.957Z,73.12
2019-01-30T05:13:36.680Z,73.71
2019-01-30T05:16:07.252Z,72.40
2019-01-30T05:18:38.408Z,73.11
2019-01-30T05:21:09.140Z,75.31
2019-01-30T05:23:40.313Z,75.98
2019-01-30T05:26:11.165Z,74.42
2019-01-30T05:28:41.548Z,74.90
2019-01-30T05:31:12.048Z,75.31
2019-01-30T05:36:38.013Z,75.19
2019-01-30T05:39:09.890Z,73.57
2019-01-30T05:41:40.668Z,72.24
2019-01-30T05:44:11.825Z,72.33
2019-01-30T05:46:42.394Z,71.63
2019-01-30T05:49:12.977Z,71.43
2019-01-30T05:51:43.603Z,72.70
2019-01-30T05:54:14.477Z,74.09
2019-01-30T05:56:45.485Z,74.53
2019-01-30T05:59:16.114Z,75.29
2019-01-30T06:01:46.827Z,73.90
2019-01-30T06:04:37.589Z,75.23
2019-01-30T06:07:08.638Z,74.92
2019-01-30T06:09:39.562Z,75.16
2019-01-30T06:12:30.294Z,75.51
2019-01-30T06:15:01.216Z,74.86
2019-01-30T06:17:31.936Z,74.77
2019-01-30T06:20:02.748Z,76.64
2019-01-30T06:22:53.373Z,75.38
2019-01-30T06:25:23.891Z,74.66
2019-01-30T06:27:54.502Z,75.22
2019-01-30T06:30:25.283Z,74.66
2019-01-30T06:32:57.282Z,75.47
2019-01-30T06:35:27.726Z,73.87
2019-01-30T06:37:58.327Z,74.48
2019-01-30T06:40:31.525Z,73.85
2019-01-30T06:43:02.996Z,73.05
2019-01-30T06:45:33.726Z,73.23
2019-01-30T06:48:05.136Z,73.38
2019-01-30T06:50:35.803Z,73.17
2019-01-30T06:53:06.575Z,72.94
2019-01-30T06:55:34.545Z,73.13
2019-01-30T06:58:05.585Z,73.88
2019-01-30T07:00:36.401Z,74.06
2019-01-30T07:03:07.111Z,71.89
2019-01-30T07:05:37.974Z,74.89
2019-01-30T07:08:08.515Z,75.73
2019-01-30T07:10:39.453Z,75.17
2019-01-30T07:13:10.051Z,75.25
2019-01-30T07:15:41.010Z,74.04
2019-01-30T07:18:31.428Z,75.43
2019-01-30T07:21:02.243Z,73.69
2019-01-30T07:23:32.945Z,73.09
2019-01-30T07:26:03.661Z,72.98
2019-01-30T07:28:34.431Z,72.69
2019-01-30T07:31:05.536Z,72.68
2019-01-30T07:33:36.184Z,73.34
2019-01-30T07:36:06.727Z,73.83
2019-01-30T07:38:37.727Z,73.14
2019-01-30T07:41:08.424Z,73.42
2019-01-30T07:43:39.472Z,73.66
2019-01-30T07:46:10.302Z,73.53
2019-01-30T07:48:40.938Z,73.29
2019-01-30T07:51:11.640Z,75.18
2019-01-30T07:53:42.156Z,76.29
2019-01-30T07:56:12.466Z,76.78
2019-01-30T07:58:43.024Z,76.37
2019-01-30T08:01:13.581Z,75.63
2019-01-30T08:03:44.599Z,74.42
2019-01-30T08:06:14.972Z,74.73
2019-01-30T08:08:45.443Z,75.38
2019-01-30T08:11:15.690Z,75.33
2019-01-30T08:13:45.983Z,76.02
2019-01-30T08:16:16.568Z,76.44
2019-01-30T08:18:47.143Z,76.48
2019-01-30T08:21:17.820Z,77.45
2019-01-30T08:23:48.842Z,77.88
2019-01-30T08:26:19.472Z,77.60
2019-01-30T08:28:50.301Z,77.23
2019-01-30T08:31:21.151Z,76.37
2019-01-30T08:33:51.769Z,75.89
2019-01-30T08:36:22.573Z,76.37
2019-01-30T08:38:53.019Z,75.87
2019-01-30T08:41:23.550Z,78.45
2019-01-30T08:43:54.370Z,79.09
2019-01-30T08:46:25.175Z,77.62
2019-01-30T08:48:55.900Z,78.04
2019-01-30T08:51:26.700Z,77.88
2019-01-30T08:53:57.429Z,78.62
2019-01-30T08:56:28.265Z,77.63
2019-01-30T08:58:59.017Z,77.22
2019-01-30T09:01:29.684Z,76.53
2019-01-30T09:04:00.135Z,76.13
2019-01-30T09:06:30.796Z,75.31
2019-01-30T09:09:01.329Z,73.35
2019-01-30T09:11:32.019Z,73.93
2019-01-30T09:14:02.579Z,71.77
2019-01-30T09:16:33.415Z,71.29
2019-01-30T09:19:04.216Z,71.16
2019-01-30T09:21:34.586Z,68.00
2019-01-30T09:24:05.068Z,70.35
2019-01-30T09:26:35.731Z,70.41
2019-01-30T09:29:06.448Z,68.60
2019-01-30T09:31:37.082Z,70.50
2019-01-30T09:34:07.840Z,68.13
2019-01-30T09:36:38.415Z,70.32
2019-01-30T09:39:11.180Z,69.72
2019-01-30T09:41:42.098Z,71.06
2019-01-30T09:44:13.022Z,69.33
2019-01-30T09:46:43.521Z,71.34
2019-01-30T09:49:14.403Z,69.04
2019-01-30T09:51:45.122Z,70.69
2019-01-30T09:54:16.065Z,68.40
2019-01-30T09:56:46.980Z,68.58
2019-01-30T09:59:17.115Z,67.56
2019-01-30T10:01:47.855Z,68.51
2019-01-30T10:04:19.578Z,68.44
2019-01-30T10:06:50.343Z,68.98
2019-01-30T10:09:20.773Z,68.94
2019-01-30T10:11:51.610Z,69.15
2019-01-30T10:14:22.237Z,68.78
2019-01-30T10:16:53.972Z,68.61
2019-01-30T10:19:24.718Z,68.99
2019-01-30T10:21:55.463Z,67.31
2019-01-30T10:24:26.074Z,67.04
2019-01-30T10:26:56.717Z,67.69
2019-01-30T10:29:27.494Z,67.97
2019-01-30T10:31:58.318Z,68.07
2019-01-30T10:34:28.875Z,67.40
2019-01-30T10:36:59.706Z,67.64
2019-01-30T10:39:30.531Z,68.10
2019-01-30T10:42:01.404Z,69.64
2019-01-30T10:44:32.064Z,69.97
2019-01-30T10:47:02.676Z,67.86
2019-01-30T10:49:33.698Z,67.17
2019-01-30T10:52:04.644Z,68.35
2019-01-30T10:54:35.281Z,66.70
2019-01-30T10:57:06.316Z,66.24
2019-01-30T10:59:36.818Z,65.30
2019-01-30T11:02:07.571Z,67.17
2019-01-30T11:04:38.115Z,68.62
2019-01-30T11:07:08.734Z,69.09
2019-01-30T11:09:39.188Z,69.22
2019-01-30T11:12:09.367Z,68.51
2019-01-30T11:14:41.134Z,68.79
2019-01-30T11:17:11.291Z,69.92
2019-01-30T11:19:42.098Z,69.94
2019-01-30T11:22:12.664Z,70.53
2019-01-30T11:24:42.883Z,69.74
2019-01-30T11:27:13.478Z,70.93
2019-01-30T11:29:45.488Z,70.57
2019-01-30T11:32:16.480Z,65.79
2019-01-30T11:34:47.124Z,66.39
2019-01-30T11:37:17.873Z,68.00
2019-01-30T11:39:48.590Z,68.52
2019-01-30T11:42:19.257Z,69.13
2019-01-30T11:44:49.836Z,69.17
2019-01-30T11:47:20.474Z,70.13
2019-01-30T11:49:51.223Z,70.66
2019-01-30T11:52:22.065Z,71.20
2019-01-30T11:54:52.705Z,72.42
2019-01-30T11:57:23.311Z,72.75
2019-01-30T11:59:53.838Z,71.64
2019-01-30T12:02:23.948Z,73.20
2019-01-30T12:04:54.575Z,74.00
2019-01-30T12:07:25.160Z,73.41
2019-01-30T12:09:56.117Z,74.21
2019-01-30T12:12:27.121Z,74.58
2019-01-30T12:14:57.609Z,75.54
2019-01-30T12:17:28.432Z,74.61
2019-01-30T12:19:58.970Z,75.34
2019-01-30T12:22:29.821Z,75.14
2019-01-30T12:25:00.480Z,75.38
2019-01-30T12:27:31.184Z,72.22
2019-01-30T12:30:01.832Z,73.23
2019-01-30T12:32:32.165Z,72.60
2019-01-30T12:35:02.427Z,72.57
2019-01-30T12:37:33.087Z,72.66
2019-01-30T12:40:03.719Z,71.52
2019-01-30T12:42:34.636Z,73.27
2019-01-30T12:45:07.062Z,73.84
2019-01-30T12:47:37.325Z,74.57
2019-01-30T12:50:08.901Z,76.21
2019-01-30T12:52:39.255Z,75.25
2019-01-30T12:55:10.126Z,74.14
2019-01-30T12:57:40.804Z,75.67
2019-01-30T13:00:17.348Z,75.23
2019-01-30T13:02:48.200Z,73.81
2019-01-30T13:05:19.648Z,71.82
2019-01-30T13:07:49.901Z,71.96
2019-01-30T13:10:20.634Z,72.47
2019-01-30T13:12:51.390Z,72.55
2019-01-30T13:15:23.359Z,71.00
2019-01-30T13:17:53.921Z,70.80
2019-01-30T13:20:24.529Z,72.50
2019-01-30T13:22:55.634Z,70.81
2019-01-30T13:25:29.308Z,70.93
2019-01-30T13:28:00.437Z,72.01
2019-01-30T13:30:36.248Z,72.13
2019-01-30T13:33:08.140Z,73.25
2019-01-30T13:35:39.194Z,72.30
2019-01-30T13:38:09.855Z,74.28
2019-01-30T13:40:41.934Z,72.84
2019-01-30T13:43:12.411Z,72.66
2019-01-30T13:45:43.057Z,73.90
2019-01-30T13:48:15.891Z,74.46
2019-01-30T13:50:47.166Z,74.72
2019-01-30T13:53:17.774Z,73.99
2019-01-30T13:55:47.834Z,74.03
2019-01-30T13:58:17.842Z,72.76
2019-01-30T14:00:48.143Z,74.01
2019-01-30T14:03:18.307Z,74.62
2019-01-30T14:05:48.547Z,73.53
2019-01-30T14:08:18.956Z,73.08
2019-01-30T14:10:49.838Z,72.91
2019-01-30T14:13:20.515Z,73.07
2019-01-30T14:15:51.103Z,73.88
2019-01-30T14:18:21.487Z,71.96
2019-01-30T14:20:52.111Z,71.61
2019-01-30T14:23:22.554Z,72.21
2019-01-30T14:25:53.190Z,73.45
2019-01-30T14:28:23.570Z,73.09
2019-01-30T14:30:54.211Z,72.68
2019-01-30T14:33:24.971Z,73.11
2019-01-30T14:35:56.158Z,73.54
2019-01-30T14:38:26.918Z,72.75
2019-01-30T14:40:57.663Z,73.93
2019-01-30T14:43:28.504Z,72.90
2019-01-30T14:45:59.463Z,72.91
2019-01-30T14:48:30.320Z,73.22
2019-01-30T14:51:00.996Z,73.47
2019-01-30T14:53:31.368Z,73.41
2019-01-30T14:56:02.236Z,74.26
2019-01-30T14:58:32.696Z,74.02
2019-01-30T15:01:03.538Z,74.72
2019-01-30T15:03:34.146Z,73.82
2019-01-30T15:06:04.701Z,73.47
2019-01-30T15:08:35.261Z,73.28
2019-01-30T15:11:05.962Z,73.80
2019-01-30T15:13:36.954Z,74.96
2019-01-30T15:16:07.927Z,75.53
2019-01-30T15:18:38.378Z,74.52
2019-01-30T15:21:08.619Z,74.21
2019-01-30T15:23:39.098Z,74.21
2019-01-30T15:26:09.634Z,74.33
2019-01-30T15:28:40.271Z,73.57
2019-01-30T15:31:10.836Z,73.63
2019-01-30T15:33:41.447Z,74.27
2019-01-30T15:36:12.258Z,74.47
2019-01-30T15:38:42.916Z,75.26
2019-01-30T15:41:13.441Z,74.65
2019-01-30T15:43:43.860Z,74.74
2019-01-30T15:46:14.060Z,74.96
2019-01-30T15:48:44.729Z,75.24
2019-01-30T15:51:15.525Z,74.80
2019-01-30T15:53:46.226Z,75.19
2019-01-30T15:56:16.907Z,74.72
2019-01-30T15:58:47.525Z,75.50
2019-01-30T16:01:26.074Z,75.16
2019-01-30T16:03:56.575Z,74.87
2019-01-30T16:06:27.303Z,75.94
2019-01-30T16:08:57.628Z,75.20
2019-01-30T16:11:28.261Z,74.89
2019-01-30T16:13:59.120Z,74.95
2019-01-30T16:16:29.615Z,75.78
2019-01-30T16:19:00.264Z,75.35
2019-01-30T16:21:30.984Z,75.31
2019-01-30T16:24:01.646Z,74.73
2019-01-30T16:26:32.049Z,76.80
2019-01-30T16:29:03.096Z,78.29
2019-01-30T16:31:33.713Z,76.71
2019-01-30T16:34:04.345Z,75.96
2019-01-30T16:36:35.140Z,76.22
2019-01-30T16:39:08.688Z,76.51
2019-01-30T16:41:39.555Z,76.50
2019-01-30T16:44:10.279Z,77.42
2019-01-30T16:46:41.086Z,77.25
2019-01-30T16:49:11.209Z,77.20
2019-01-30T16:51:41.304Z,75.87
2019-01-30T16:54:12.273Z,77.94
2019-01-30T16:56:42.899Z,79.13
2019-01-30T16:59:13.599Z,79.30
2019-01-30T17:01:44.357Z,78.22
2019-01-30T17:04:15.293Z,76.96
2019-01-30T17:06:45.926Z,76.48
2019-01-30T17:09:16.245Z,76.36
2019-01-30T17:11:47.086Z,77.97
2019-01-30T17:14:17.527Z,79.21
2019-01-30T17:16:48.148Z,77.92
2019-01-30T17:19:18.675Z,77.03
2019-01-30T17:21:49.226Z,76.58
2019-01-30T17:24:19.745Z,75.66
2019-01-30T17:26:50.600Z,75.54
2019-01-30T17:29:22.805Z,74.85
2019-01-30T17:31:53.774Z,74.66
2019-01-30T17:34:24.799Z,74.08
2019-01-30T17:36:55.532Z,74.98
2019-01-30T17:39:25.932Z,74.06
2019-01-30T17:41:56.619Z,74.78
2019-01-30T17:44:27.124Z,74.50
2019-01-30T17:46:57.696Z,76.49
2019-01-30T17:49:28.515Z,76.07
2019-01-30T17:51:59.334Z,74.51
2019-01-30T17:54:29.893Z,73.36
2019-01-30T17:57:00.295Z,73.54
2019-01-30T17:59:31.225Z,72.80
2019-01-30T18:02:02.146Z,73.31
2019-01-30T18:04:32.983Z,73.73
2019-01-30T18:07:03.549Z,73.08
2019-01-30T18:09:34.177Z,73.70
2019-01-30T18:12:05.329Z,74.01
2019-01-30T18:14:35.826Z,73.20
2019-01-30T18:17:06.559Z,75.40
2019-01-30T18:19:37.252Z,74.67
2019-01-30T18:22:08.153Z,74.43
2019-01-30T18:24:38.763Z,74.10
2019-01-30T18:27:09.478Z,74.00
2019-01-30T18:29:40.155Z,73.52
2019-01-30T18:32:11.080Z,75.10
2019-01-30T18:34:41.735Z,73.89
2019-01-30T18:37:12.489Z,73.45
2019-01-30T18:39:43.287Z,72.62
2019-01-30T18:42:14.228Z,72.41
2019-01-30T18:44:44.837Z,71.99
2019-01-30T18:47:15.470Z,72.50
2019-01-30T18:49:46.134Z,72.54
2019-01-30T18:52:16.848Z,72.72
2019-01-30T18:54:48.002Z,73.09
2019-01-30T18:57:18.716Z,74.26
2019-01-30T18:59:49.228Z,73.93
2019-01-30T19:02:19.925Z,74.21
2019-01-30T19:04:50.612Z,73.60
2019-01-30T19:07:21.446Z,73.79
2019-01-30T19:09:52.066Z,73.35
2019-01-30T19:12:22.498Z,73.46
2019-01-30T19:14:53.341Z,73.28
2019-01-30T19:17:24.320Z,73.57
2019-01-30T19:19:54.908Z,73.06
2019-01-30T19:22:25.624Z,72.86
2019-01-30T19:24:56.372Z,72.94
2019-01-30T19:27:27.011Z,73.04
2019-01-30T19:29:57.724Z,73.79
2019-01-30T19:32:28.695Z,73.56
2019-01-30T19:34:59.392Z,74.58
2019-01-30T19:37:29.918Z,74.03
2019-01-30T19:40:00.545Z,73.80
2019-01-30T19:42:31.104Z,74.19
2019-01-30T19:45:01.607Z,74.41
2019-01-30T19:47:32.126Z,74.17
2019-01-30T19:50:02.996Z,74.11
2019-01-30T19:52:33.984Z,73.26
2019-01-30T19:55:04.736Z,73.17
2019-01-30T19:57:35.282Z,72.96
2019-01-30T20:00:08.100Z,72.18
2019-01-30T20:02:39.277Z,72.00
2019-01-30T20:05:11.796Z,72.50
2019-01-30T20:07:42.419Z,72.65
2019-01-30T20:10:16.373Z,72.64
2019-01-30T20:12:46.838Z,72.27
2019-01-30T20:15:17.912Z,72.45
2019-01-30T20:17:48.875Z,72.35
2019-01-30T20:20:21.122Z,72.97
2019-01-30T20:22:51.726Z,73.74
2019-01-30T20:25:24.391Z,73.24
2019-01-30T20:27:55.220Z,73.31
2019-01-30T20:30:25.990Z,73.62
2019-01-30T20:32:56.634Z,73.85
2019-01-30T20:35:27.367Z,73.73
2019-01-30T20:37:58.438Z,73.44
2019-01-30T20:40:29.771Z,73.59
2019-01-30T20:43:00.153Z,73.35
2019-01-30T20:45:33.922Z,73.04
2019-01-30T20:48:03.379Z,73.26
2019-01-30T20:50:33.900Z,74.32
2019-01-30T20:53:04.839Z,74.45
2019-01-30T20:55:35.262Z,74.13
2019-01-30T20:58:06.608Z,74.40
2019-01-30T21:00:38.888Z,74.26
2019-01-30T21:03:10.098Z,74.60
2019-01-30T21:05:40.835Z,75.42
2019-01-30T21:08:11.387Z,75.17
2019-01-30T21:10:43.307Z,76.26
2019-01-30T21:13:14.396Z,74.60
2019-01-30T21:15:44.406Z,74.40
2019-01-30T21:18:18.088Z,74.74
2019-01-30T21:20:47.735Z,75.50
2019-01-30T21:23:18.448Z,74.77
2019-01-30T21:25:50.017Z,74.43
2019-01-30T21:28:20.255Z,74.04
2019-01-30T21:30:50.892Z,73.71
2019-01-30T21:33:21.688Z,73.76
2019-01-30T21:35:52.533Z,73.88
2019-01-30T21:38:23.261Z,74.13
2019-01-30T21:40:53.602Z,74.06
2019-01-30T21:43:24.361Z,74.27
2019-01-30T21:45:55.215Z,74.59
2019-01-30T21:48:26.097Z,74.46
2019-01-30T21:50:56.810Z,73.71
2019-01-30T21:53:27.553Z,74.94
2019-01-30T21:55:58.424Z,75.41
2019-01-30T21:58:29.260Z,74.55
2019-01-30T22:00:59.791Z,73.90
2019-01-30T22:03:30.516Z,73.51
2019-01-30T22:06:01.496Z,73.66
2019-01-30T22:08:32.287Z,74.13
2019-01-30T22:11:02.783Z,74.70
2019-01-30T22:13:33.626Z,74.71
2019-01-30T22:16:04.442Z,74.64
2019-01-30T22:18:34.985Z,74.57
2019-01-30T22:21:05.898Z,74.64
2019-01-30T22:23:36.776Z,74.38
2019-01-30T22:26:07.355Z,74.44
2019-01-30T22:28:37.819Z,75.47
2019-01-30T22:31:08.374Z,75.96
2019-01-30T22:33:38.830Z,75.60
2019-01-30T22:36:09.302Z,74.57
2019-01-30T22:38:39.929Z,74.67
2019-01-30T22:41:10.896Z,74.81
2019-01-30T22:43:41.936Z,74.32
2019-01-30T22:46:12.645Z,74.26
2019-01-30T22:48:43.419Z,73.74
2019-01-30T22:51:14.045Z,73.32
2019-01-30T22:53:44.727Z,73.79
2019-01-30T22:56:15.544Z,74.25
2019-01-30T22:58:46.184Z,74.61
2019-01-30T23:01:52.196Z,74.00
2019-01-30T23:05:02.452Z,73.87
2019-01-30T23:07:56.329Z,75.11
2019-01-30T23:10:50.202Z,75.62
2019-01-30T23:13:27.201Z,74.89
2019-01-30T23:16:41.234Z,74.58
2019-01-30T23:19:57.176Z,74.17
2019-01-30T23:23:07.689Z,73.86
2019-01-30T23:26:07.097Z,75.33
2019-01-30T23:29:13.566Z,74.78
2019-01-30T23:32:30.480Z,75.36
2019-01-30T23:35:49.353Z,75.41
2019-01-30T23:39:00.219Z,74.90
2019-01-30T23:41:42.830Z,75.36
2019-01-30T23:44:24.122Z,75.08
2019-01-30T23:47:33.448Z,74.44
2019-01-30T23:50:24.973Z,74.49
2019-01-30T23:53:40.316Z,74.43
2019-01-30T23:56:38.834Z,74.56
2019-01-30T23:59:32.718Z,74.95
